Time;durP1;ratioP1;P1;durP2;ratioP2;P2;SDS_P1;SDS_P2;PMS_P1;PMS_P2;Temp;Humidity;BMP_temperature;BMP_pressure;BME280_temperature;BME280_humidity;BME280_pressure;Samples;Min_cycle;Max_cycle;Signal;HPM_P1;HPM_P2
2022/10/29 00:00:58;;;;;;;37.60;19.10;;;;;;;15.05;76.65;101000.13;4440410;32;33995;-76
2022/10/29 00:03:26;;;;;;;39.63;18.37;;;;;;;15.15;76.22;101007.69;4438243;32;34672;-76
2022/10/29 00:06:02;;;;;;;37.78;16.52;;;;;;;15.35;75.21;101007.19;4438134;32;34194;-76
2022/10/29 00:08:31;;;;;;;35.97;17.27;;;;;;;14.85;76.77;101008.00;4438978;32;34240;-76
2022/10/29 00:11:11;;;;;;;37.28;16.20;;;;;;;14.64;77.88;101010.34;4437842;32;33927;-76
2022/10/29 00:13:40;;;;;;;35.25;15.90;;;;;;;14.75;77.80;101008.62;4440134;32;33548;-76
2022/10/29 00:16:13;;;;;;;39.08;16.85;;;;;;;14.79;77.32;100998.03;4436858;32;34007;-76
2022/10/29 00:18:40;;;;;;;33.83;16.20;;;;;;;15.03;76.55;101009.66;4438531;32;33986;-77
2022/10/29 00:21:11;;;;;;;31.65;14.57;;;;;;;14.74;77.69;101004.25;4438870;32;34307;-76
2022/10/29 00:23:39;;;;;;;39.95;17.90;;;;;;;14.93;77.03;101005.69;4436895;32;34781;-76
2022/10/29 00:26:07;;;;;;;36.13;18.33;;;;;;;15.16;76.25;101006.59;4435901;32;33085;-76
2022/10/29 00:28:34;;;;;;;42.90;16.92;;;;;;;14.83;77.26;101007.41;4445052;32;33854;-76
2022/10/29 00:31:08;;;;;;;39.05;16.48;;;;;;;14.70;77.82;101000.34;4439156;32;34085;-76
2022/10/29 00:33:35;;;;;;;41.30;18.05;;;;;;;14.84;77.48;101004.44;4439286;32;33932;-77
2022/10/29 00:36:06;;;;;;;35.85;16.58;;;;;;;14.45;79.13;101012.44;4453740;32;32724;-76
2022/10/29 00:38:34;;;;;;;36.92;17.17;;;;;;;14.69;78.19;101013.19;4454438;32;33870;-74
2022/10/29 00:41:02;;;;;;;36.90;16.12;;;;;;;14.65;78.16;101013.94;4454130;32;33879;-76
2022/10/29 00:43:32;;;;;;;38.22;16.98;;;;;;;14.90;77.46;101011.66;4440493;32;33931;-76
2022/10/29 00:46:03;;;;;;;35.67;15.90;;;;;;;15.03;76.58;101009.66;4453106;32;34404;-76
2022/10/29 00:48:35;;;;;;;39.47;17.77;;;;;;;14.10;80.77;101013.37;4440825;32;34810;-76
2022/10/29 00:51:04;;;;;;;30.17;15.18;;;;;;;14.25;80.54;101010.09;4440231;32;34274;-77
2022/10/29 00:53:34;;;;;;;39.42;17.05;;;;;;;13.93;82.48;101009.72;4453892;32;33789;-76
2022/10/29 00:56:01;;;;;;;37.75;16.45;;;;;;;14.37;80.35;101001.91;4452558;32;33450;-76
2022/10/29 00:58:29;;;;;;;35.15;16.35;;;;;;;14.71;78.50;101002.03;4452938;32;34527;-77
2022/10/29 01:00:58;;;;;;;38.83;17.23;;;;;;;14.33;79.84;100998.00;4453766;32;34819;-76
2022/10/29 01:03:25;;;;;;;40.55;16.90;;;;;;;14.29;80.28;100999.53;4453414;32;34176;-75
2022/10/29 01:05:52;;;;;;;40.60;16.77;;;;;;;14.23;80.48;100995.88;4454522;32;32834;-76
2022/10/29 01:08:20;;;;;;;37.67;15.50;;;;;;;14.50;78.99;100987.94;4453593;32;33796;-77
2022/10/29 01:10:58;;;;;;;40.15;15.70;;;;;;;14.38;79.87;100991.78;4439758;32;34720;-75
2022/10/29 01:13:47;;;;;;;32.63;15.65;;;;;;;14.45;79.42;100982.41;4439719;32;33891;-76
2022/10/29 01:16:24;;;;;;;39.58;17.55;;;;;;;14.44;79.37;100980.72;4452351;32;33230;-77
2022/10/29 01:19:06;;;;;;;34.38;15.77;;;;;;;14.17;80.59;100983.22;4453344;32;33845;-76
2022/10/29 01:21:44;;;;;;;37.63;16.15;;;;;;;14.37;79.35;100971.88;4452771;32;35154;-76
2022/10/29 01:24:38;;;;;;;30.85;13.15;;;;;;;14.04;81.42;100973.41;4452971;32;33677;-75
2022/10/29 01:27:15;;;;;;;32.83;14.32;;;;;;;13.92;81.91;100967.97;4453161;32;33534;-77
2022/10/29 01:29:48;;;;;;;29.52;14.07;;;;;;;13.86;82.16;100968.94;4453722;32;33577;-77
2022/10/29 01:32:44;;;;;;;28.00;14.52;;;;;;;13.76;82.48;100966.00;4452640;32;35185;-77
2022/10/29 01:35:46;;;;;;;27.02;12.60;;;;;;;14.31;79.42;100961.91;4425087;32;33809;-75
2022/10/29 01:38:35;;;;;;;26.62;14.15;;;;;;;14.26;79.80;100964.56;4439122;32;33770;-75
2022/10/29 01:41:15;;;;;;;31.00;13.27;;;;;;;14.69;77.28;100957.72;4438245;32;34865;-76
2022/10/29 01:44:02;;;;;;;31.37;14.45;;;;;;;14.22;79.23;100944.28;4438062;32;34368;-76
2022/10/29 01:46:46;;;;;;;32.50;14.87;;;;;;;14.39;78.62;100947.06;4437745;32;33730;-76
2022/10/29 01:49:18;;;;;;;30.50;13.73;;;;;;;14.19;79.71;100944.75;4443297;32;33603;-77
2022/10/29 01:51:47;;;;;;;33.17;14.98;;;;;;;14.06;79.65;100949.44;4439558;32;33743;-75
2022/10/29 01:54:14;;;;;;;32.85;14.82;;;;;;;13.83;81.21;100946.78;4438380;32;34153;-75
2022/10/29 01:56:42;;;;;;;33.80;15.50;;;;;;;13.87;80.61;100945.22;4452772;32;33712;-76
2022/10/29 01:59:11;;;;;;;31.58;14.52;;;;;;;14.44;78.10;100937.03;4453609;32;34380;-77
2022/10/29 02:02:07;;;;;;;34.13;14.10;;;;;;;14.00;79.70;100942.22;4426143;32;34090;-75
2022/10/29 02:04:57;;;;;;;30.88;14.95;;;;;;;14.36;78.50;100934.69;4411016;32;34190;-76
2022/10/29 02:07:24;;;;;;;30.62;13.80;;;;;;;14.09;79.41;100937.19;4435861;32;35273;-76
2022/10/29 02:10:00;;;;;;;30.95;14.82;;;;;;;13.99;79.87;100932.34;4453376;32;33427;-76
2022/10/29 02:12:34;;;;;;;29.75;13.80;;;;;;;13.92;80.66;100940.69;4453534;32;33982;-76
2022/10/29 02:15:05;;;;;;;35.17;14.48;;;;;;;14.04;80.28;100948.84;4438297;32;33962;-74
2022/10/29 02:17:33;;;;;;;31.40;13.57;;;;;;;14.05;80.18;100939.56;4439189;32;34734;-76
2022/10/29 02:20:06;;;;;;;30.25;13.38;;;;;;;14.06;80.27;100941.25;4439430;32;33120;-77
2022/10/29 02:22:33;;;;;;;26.45;13.18;;;;;;;13.90;80.89;100937.38;4451969;32;34003;-75
2022/10/29 02:25:01;;;;;;;28.42;13.38;;;;;;;13.82;81.78;100937.78;4452661;32;34241;-76
2022/10/29 02:27:29;;;;;;;27.13;13.52;;;;;;;14.24;79.69;100925.75;4438794;32;34875;-76
2022/10/29 02:29:56;;;;;;;28.17;13.13;;;;;;;14.39;78.79;100930.66;4454795;32;34594;-77
2022/10/29 02:32:24;;;;;;;32.92;15.18;;;;;;;14.17;79.88;100936.81;4452728;32;34045;-75
2022/10/29 02:34:51;;;;;;;29.17;13.90;;;;;;;14.18;79.95;100935.72;4452654;32;34283;-76
2022/10/29 02:37:19;;;;;;;27.20;14.55;;;;;;;14.43;78.46;100940.03;4453053;32;34036;-77
2022/10/29 02:39:46;;;;;;;28.73;14.00;;;;;;;14.20;79.54;100940.97;4451906;32;33761;-77
2022/10/29 02:42:13;;;;;;;27.37;13.30;;;;;;;14.34;78.79;100943.16;4439255;32;32869;-76
2022/10/29 02:44:41;;;;;;;27.45;14.48;;;;;;;14.28;79.12;100935.13;4453873;32;34963;-76
2022/10/29 02:47:08;;;;;;;31.40;14.25;;;;;;;14.33;78.86;100930.56;4452723;32;33938;-76
2022/10/29 02:49:36;;;;;;;29.85;14.65;;;;;;;14.22;79.52;100927.91;4452868;32;33280;-76
2022/10/29 02:52:03;;;;;;;34.33;16.62;;;;;;;14.65;77.40;100937.44;4452713;32;33755;-77
2022/10/29 02:54:31;;;;;;;28.00;14.73;;;;;;;14.62;77.16;100933.31;4452385;32;34297;-77
2022/10/29 02:56:58;;;;;;;29.83;15.32;;;;;;;14.58;77.57;100926.69;4452120;32;34348;-75
2022/10/29 02:59:26;;;;;;;30.83;15.43;;;;;;;14.62;77.02;100919.66;4450423;32;33257;-76
2022/10/29 03:01:53;;;;;;;31.15;14.52;;;;;;;14.46;77.83;100929.44;4453068;32;34020;-76
2022/10/29 03:04:21;;;;;;;28.75;13.88;;;;;;;14.39;77.55;100919.75;4452350;32;33434;-76
2022/10/29 03:06:48;;;;;;;35.35;14.95;;;;;;;13.80;80.67;100920.81;4452510;32;33245;-76
2022/10/29 03:09:16;;;;;;;33.75;14.07;;;;;;;13.83;80.92;100923.03;4453228;32;33709;-75
2022/10/29 03:11:43;;;;;;;32.38;15.48;;;;;;;14.00;80.11;100922.28;4452899;32;34972;-77
2022/10/29 03:14:11;;;;;;;31.17;14.25;;;;;;;14.16;79.07;100930.50;4452591;32;35179;-76
2022/10/29 03:16:38;;;;;;;32.75;15.13;;;;;;;14.44;77.89;100923.38;4452100;32;33763;-77
2022/10/29 03:19:06;;;;;;;27.10;13.60;;;;;;;14.38;77.96;100934.47;4452380;32;33751;-76
2022/10/29 03:21:33;;;;;;;29.10;13.68;;;;;;;14.42;77.65;100930.16;4452781;32;34718;-76
2022/10/29 03:24:01;;;;;;;30.27;14.35;;;;;;;14.71;76.24;100929.09;4452159;32;34349;-77
2022/10/29 03:26:28;;;;;;;33.15;16.00;;;;;;;14.23;78.03;100918.63;4451944;32;34178;-77
2022/10/29 03:28:56;;;;;;;26.98;13.73;;;;;;;14.09;79.25;100915.37;4452557;32;34391;-77
2022/10/29 03:31:23;;;;;;;29.85;14.73;;;;;;;14.66;76.36;100925.44;4452658;32;34751;-76
2022/10/29 03:33:50;;;;;;;28.90;14.35;;;;;;;14.70;75.69;100923.88;4451627;32;34147;-77
2022/10/29 03:36:18;;;;;;;26.60;13.27;;;;;;;14.16;77.87;100921.50;4452157;32;34725;-76
2022/10/29 03:38:45;;;;;;;29.00;13.23;;;;;;;14.34;77.28;100921.31;4452449;32;33501;-76
2022/10/29 03:41:13;;;;;;;26.55;12.40;;;;;;;14.63;76.28;100920.47;4452374;32;34298;-76
2022/10/29 03:43:40;;;;;;;27.55;13.70;;;;;;;14.35;76.69;100914.75;4453810;32;34343;-75
2022/10/29 03:46:08;;;;;;;25.88;13.88;;;;;;;13.95;78.86;100914.81;4451624;32;34654;-78
2022/10/29 03:48:35;;;;;;;25.65;12.32;;;;;;;14.03;78.47;100922.63;4451380;32;33726;-76
2022/10/29 03:51:05;;;;;;;26.92;12.85;;;;;;;13.75;79.57;100924.25;4452481;32;34221;-75
2022/10/29 03:53:34;;;;;;;25.77;13.45;;;;;;;13.75;79.98;100917.97;4452113;32;35196;-78
2022/10/29 03:56:02;;;;;;;23.67;12.20;;;;;;;14.24;77.76;100918.37;4437633;32;33985;-80
2022/10/29 03:58:30;;;;;;;29.20;14.20;;;;;;;13.91;79.13;100922.66;4450190;32;33662;-76
2022/10/29 04:01:03;;;;;;;28.55;13.43;;;;;;;13.85;79.62;100922.81;4452111;32;34731;-77
2022/10/29 04:03:32;;;;;;;25.37;12.52;;;;;;;14.37;77.27;100920.00;4452008;32;33949;-75
2022/10/29 04:06:01;;;;;;;26.00;12.60;;;;;;;13.79;79.92;100916.41;4451404;32;33731;-77
2022/10/29 04:08:28;;;;;;;28.58;13.07;;;;;;;14.19;77.95;100921.03;4437618;32;33798;-76
2022/10/29 04:10:56;;;;;;;29.90;13.48;;;;;;;13.44;81.05;100914.59;4452271;32;34046;-78
2022/10/29 04:13:23;;;;;;;28.50;12.35;;;;;;;13.74;80.04;100921.78;4450747;32;33820;-76
2022/10/29 04:15:54;;;;;;;28.52;13.32;;;;;;;14.02;79.05;100922.88;4451307;32;33625;-76
2022/10/29 04:18:24;;;;;;;24.55;13.50;;;;;;;13.86;79.14;100925.28;4422053;32;33211;-78
2022/10/29 04:20:52;;;;;;;29.33;12.88;;;;;;;13.64;80.69;100933.28;4422526;32;34194;-77
2022/10/29 04:23:40;;;;;;;29.42;13.35;;;;;;;14.15;78.54;100928.87;4435950;32;34288;-75
2022/10/29 04:26:27;;;;;;;30.65;14.23;;;;;;;13.97;79.07;100934.50;4435959;32;34517;-78
2022/10/29 04:29:15;;;;;;;23.12;12.63;;;;;;;13.79;80.14;100926.50;4436006;32;33454;-76
2022/10/29 04:31:42;;;;;;;26.17;12.98;;;;;;;13.78;80.18;100927.56;4445929;32;33049;-77
2022/10/29 04:34:10;;;;;;;26.55;13.30;;;;;;;14.15;78.34;100923.41;4451894;32;34229;-78
2022/10/29 04:36:37;;;;;;;30.42;14.15;;;;;;;14.53;76.57;100926.53;4451876;32;34001;-77
2022/10/29 04:39:05;;;;;;;27.25;12.65;;;;;;;14.21;77.81;100928.94;4453664;32;33452;-75
2022/10/29 04:41:32;;;;;;;27.25;13.93;;;;;;;14.42;77.01;100922.78;4451856;32;34111;-76
2022/10/29 04:44:00;;;;;;;28.15;12.77;;;;;;;14.15;78.25;100925.31;4451557;32;34584;-74
2022/10/29 04:46:28;;;;;;;27.58;14.38;;;;;;;13.94;79.01;100935.00;4453942;32;34040;-73
2022/10/29 04:48:55;;;;;;;35.13;15.77;;;;;;;13.90;79.41;100920.19;4453419;32;33268;-76
2022/10/29 04:51:25;;;;;;;29.90;15.85;;;;;;;14.02;79.22;100914.69;4453979;32;34928;-75
2022/10/29 04:53:52;;;;;;;31.55;15.13;;;;;;;13.54;81.22;100920.28;4453155;32;34206;-78
2022/10/29 04:56:20;;;;;;;33.10;15.13;;;;;;;14.04;78.96;100917.97;4453512;32;34717;-74
2022/10/29 04:58:51;;;;;;;29.37;14.13;;;;;;;14.36;77.05;100929.22;4455096;32;33673;-77
2022/10/29 05:01:18;;;;;;;27.45;14.13;;;;;;;14.20;77.39;100938.22;4454020;32;33584;-74
2022/10/29 05:03:46;;;;;;;30.08;15.32;;;;;;;14.14;77.30;100929.09;4452599;32;33970;-76
2022/10/29 05:06:14;;;;;;;27.00;13.82;;;;;;;14.28;76.44;100933.19;4453691;32;33694;-76
2022/10/29 05:08:41;;;;;;;27.10;14.50;;;;;;;13.93;78.11;100931.44;4453927;32;34025;-78
2022/10/29 05:11:08;;;;;;;28.25;14.00;;;;;;;13.38;80.86;100928.34;4453891;32;33523;-75
2022/10/29 05:13:36;;;;;;;34.15;14.60;;;;;;;13.60;79.65;100932.09;4451909;32;33880;-75
2022/10/29 05:16:04;;;;;;;30.55;14.75;;;;;;;13.74;79.72;100929.97;4453784;32;34022;-77
2022/10/29 05:18:31;;;;;;;25.27;13.65;;;;;;;13.86;78.44;100935.37;4453031;32;33703;-75
2022/10/29 05:20:59;;;;;;;32.55;13.80;;;;;;;13.64;79.53;100927.81;4446475;32;33718;-72
2022/10/29 05:23:26;;;;;;;27.08;14.65;;;;;;;13.39;80.72;100919.94;4452911;32;35192;-73
2022/10/29 05:25:54;;;;;;;30.25;14.13;;;;;;;13.50;80.14;100921.81;4453271;32;34686;-72
2022/10/29 05:28:23;;;;;;;30.12;14.63;;;;;;;13.71;78.94;100927.69;4452921;32;33570;-76
2022/10/29 05:30:51;;;;;;;31.67;14.87;;;;;;;13.79;78.56;100923.78;4453005;32;34802;-73
2022/10/29 05:33:21;;;;;;;29.90;14.95;;;;;;;13.41;80.20;100928.72;4454840;32;34165;-72
2022/10/29 05:35:49;;;;;;;28.83;14.38;;;;;;;13.86;78.25;100921.72;4438832;32;34043;-75
2022/10/29 05:38:17;;;;;;;31.15;15.20;;;;;;;13.98;77.96;100921.72;4453822;32;33643;-77
2022/10/29 05:40:45;;;;;;;27.67;13.20;;;;;;;14.01;77.20;100929.41;4453754;32;33814;-73
2022/10/29 05:43:14;;;;;;;22.35;12.48;;;;;;;14.03;77.29;100929.97;4439311;32;34040;-76
2022/10/29 05:45:42;;;;;;;20.67;11.27;;;;;;;13.36;79.69;100930.47;4452903;32;34914;-73
2022/10/29 05:48:10;;;;;;;20.67;11.77;;;;;;;13.67;78.56;100932.81;4441297;32;34379;-74
2022/10/29 05:50:39;;;;;;;24.98;12.00;;;;;;;13.46;79.38;100928.81;4439723;32;34883;-74
2022/10/29 05:53:10;;;;;;;21.25;12.50;;;;;;;13.79;77.83;100935.50;4452714;32;34094;-72
2022/10/29 05:55:37;;;;;;;22.10;13.13;;;;;;;12.72;82.20;100925.66;4452804;32;33836;-73
2022/10/29 05:58:08;;;;;;;24.48;12.52;;;;;;;12.50;84.20;100923.50;4453032;32;34333;-74
2022/10/29 06:00:39;;;;;;;20.30;11.73;;;;;;;12.33;85.21;100922.50;4453381;32;34149;-75
2022/10/29 06:16:06;;;;;;;21.08;12.02;;;;;;;14.08;77.09;100911.81;4474301;32;219083;-74
2022/10/29 06:18:34;;;;;;;19.90;12.40;;;;;;;14.08;77.09;100911.81;4481614;32;33972;-74
2022/10/29 06:21:01;;;;;;;19.60;12.20;;;;;;;13.70;78.09;100926.88;4466655;32;33952;-74
2022/10/29 06:23:29;;;;;;;23.58;12.85;;;;;;;13.72;77.78;100930.19;4478430;32;34242;-73
2022/10/29 06:26:00;;;;;;;21.25;13.25;;;;;;;13.49;78.14;100930.22;4481548;32;34523;-74
2022/10/29 06:28:28;;;;;;;23.85;13.00;;;;;;;13.90;76.71;100929.19;4476876;32;33502;-74
2022/10/29 06:31:01;;;;;;;21.73;14.52;;;;;;;13.13;80.38;100941.13;4480539;32;34829;-74
2022/10/29 06:33:29;;;;;;;21.42;13.68;;;;;;;12.63;83.92;100949.69;4481428;32;34064;-73
2022/10/29 06:36:00;;;;;;;21.02;12.88;;;;;;;13.32;80.63;100935.56;4480566;32;34471;-73
2022/10/29 06:38:27;;;;;;;20.88;12.70;;;;;;;13.88;77.49;100938.69;4474675;32;34417;-73
2022/10/29 06:40:55;;;;;;;24.08;12.73;;;;;;;13.54;78.28;100944.81;4477457;32;34931;-74
2022/10/29 06:43:22;;;;;;;19.23;11.68;;;;;;;14.09;76.06;100939.94;4473799;32;33778;-72
2022/10/29 06:45:50;;;;;;;20.35;12.05;;;;;;;14.06;75.45;100932.22;4465315;32;33917;-75
2022/10/29 06:48:17;;;;;;;19.65;11.12;;;;;;;13.68;77.23;100944.53;4465271;32;34291;-78
2022/10/29 06:50:49;;;;;;;25.05;13.07;;;;;;;13.71;77.15;100950.38;4465452;32;34131;-76
2022/10/29 06:53:17;;;;;;;21.65;12.20;;;;;;;13.84;77.23;100953.88;4473937;32;35218;-74
2022/10/29 06:55:45;;;;;;;20.48;11.85;;;;;;;14.13;75.31;100957.47;4468066;32;33919;-74
2022/10/29 06:58:14;;;;;;;21.85;11.75;;;;;;;14.03;75.33;100944.44;4464754;32;34194;-77
2022/10/29 07:00:43;;;;;;;25.75;12.95;;;;;;;13.68;77.48;100930.91;4465244;32;34917;-74
2022/10/29 07:03:12;;;;;;;24.60;13.77;;;;;;;13.70;77.08;100931.50;4465368;32;34159;-74
2022/10/29 07:05:39;;;;;;;26.73;14.38;;;;;;;13.57;78.25;100920.88;4465448;32;33765;-75
2022/10/29 07:08:07;;;;;;;28.85;14.13;;;;;;;13.24;79.39;100927.72;4480720;32;33572;-75
2022/10/29 07:10:35;;;;;;;25.85;12.77;;;;;;;13.60;78.75;100934.81;4479509;32;34817;-75
2022/10/29 07:13:02;;;;;;;29.12;14.75;;;;;;;13.63;78.92;100942.53;4479262;32;33831;-75
2022/10/29 07:15:30;;;;;;;25.33;13.77;;;;;;;13.31;80.21;100939.38;4477163;32;33887;-75
2022/10/29 07:17:59;;;;;;;29.58;15.15;;;;;;;13.45;79.63;100956.31;4462755;32;32850;-75
2022/10/29 07:20:28;;;;;;;27.30;14.07;;;;;;;13.49;80.23;100957.50;4454810;32;34853;-73
2022/10/29 07:22:56;;;;;;;31.77;15.40;;;;;;;13.66;79.53;100952.97;4454639;32;34374;-74
2022/10/29 07:25:23;;;;;;;32.78;15.60;;;;;;;13.05;82.08;100954.28;4454592;32;33812;-74
2022/10/29 07:27:51;;;;;;;31.52;15.43;;;;;;;13.04;82.48;100955.31;4454037;32;33356;-75
2022/10/29 07:30:19;;;;;;;33.67;16.92;;;;;;;13.06;82.92;100953.19;4456270;32;34937;-75
2022/10/29 07:32:46;;;;;;;30.25;15.90;;;;;;;13.50;80.56;100951.00;4468882;32;34953;-78
2022/10/29 07:35:14;;;;;;;28.90;15.23;;;;;;;13.20;82.17;100968.25;4470097;32;34516;-70
2022/10/29 07:37:41;;;;;;;31.48;16.25;;;;;;;13.46;81.55;100968.87;4470194;32;34413;-72
2022/10/29 07:40:09;;;;;;;31.62;16.23;;;;;;;13.59;81.34;100974.09;4469946;32;34215;-72
2022/10/29 07:42:36;;;;;;;34.65;16.40;;;;;;;13.68;81.24;100971.81;4466659;32;34286;-72
2022/10/29 07:45:05;;;;;;;31.67;15.88;;;;;;;13.05;83.60;100957.81;4468926;32;33608;-71
2022/10/29 07:47:32;;;;;;;28.90;15.90;;;;;;;13.42;81.41;100945.87;4470035;32;33381;-73
2022/10/29 07:49:59;;;;;;;31.60;15.35;;;;;;;12.64;85.10;100951.34;4469977;32;34086;-73
2022/10/29 07:52:27;;;;;;;33.47;16.55;;;;;;;13.28;81.88;100957.03;4470260;32;34186;-72
2022/10/29 07:54:54;;;;;;;31.67;15.98;;;;;;;13.41;81.34;100957.84;4469806;32;33950;-72
2022/10/29 07:57:22;;;;;;;30.42;15.88;;;;;;;13.49;80.39;100941.97;4468056;32;34494;-75
2022/10/29 07:59:50;;;;;;;32.45;16.67;;;;;;;13.34;82.27;100955.25;4469143;32;33977;-72
2022/10/29 08:02:18;;;;;;;33.00;17.23;;;;;;;14.01;79.19;100943.03;4451910;32;34104;-71
2022/10/29 08:04:45;;;;;;;34.25;16.75;;;;;;;14.12;77.76;100939.44;4450383;32;33188;-70
2022/10/29 08:07:13;;;;;;;32.90;16.40;;;;;;;14.43;76.63;100957.22;4453026;32;34449;-70
2022/10/29 08:09:40;;;;;;;37.95;19.20;;;;;;;13.58;80.71;100966.97;4451473;32;33636;-71
2022/10/29 08:12:09;;;;;;;38.85;19.17;;;;;;;14.24;77.85;100963.97;4451953;32;34132;-71
2022/10/29 08:14:37;;;;;;;34.15;18.40;;;;;;;14.00;78.38;100955.03;4452094;32;32839;-71
2022/10/29 08:17:04;;;;;;;38.40;19.33;;;;;;;14.11;77.81;100949.53;4453330;32;33157;-70
2022/10/29 08:19:32;;;;;;;33.03;17.33;;;;;;;14.00;78.89;100953.13;4452533;32;34656;-70
2022/10/29 08:21:59;;;;;;;40.42;19.65;;;;;;;13.83;79.63;100963.97;4458324;32;35000;-70
2022/10/29 08:24:26;;;;;;;39.58;19.65;;;;;;;13.95;79.44;100956.59;4451310;32;33731;-70
2022/10/29 08:26:54;;;;;;;41.22;19.05;;;;;;;13.89;79.03;100952.09;4452143;32;33255;-73
2022/10/29 08:29:21;;;;;;;41.45;21.10;;;;;;;14.25;77.92;100944.59;4451688;32;34836;-71
2022/10/29 08:31:49;;;;;;;36.95;19.58;;;;;;;14.03;78.69;100935.44;4451839;32;34034;-71
2022/10/29 08:34:16;;;;;;;35.25;17.87;;;;;;;14.26;77.98;100943.53;4452909;32;33614;-71
2022/10/29 08:36:44;;;;;;;39.88;19.80;;;;;;;13.69;80.84;100955.22;4453465;32;33611;-71
2022/10/29 08:39:11;;;;;;;34.53;19.30;;;;;;;14.32;78.24;100963.59;4460231;32;34229;-71
2022/10/29 08:42:14;;;;;;;31.50;18.40;;;;;;;13.77;79.97;100959.47;4451430;32;34130;-74
2022/10/29 08:44:53;;;;;;;35.38;19.10;;;;;;;14.16;78.73;100971.44;4428979;32;33797;-71
2022/10/29 08:47:22;;;;;;;38.35;20.55;;;;;;;14.33;77.62;100970.69;4452063;32;33304;-75
2022/10/29 08:50:09;;;;;;;36.47;18.95;;;;;;;14.16;78.27;100960.53;4459588;32;33623;-71
2022/10/29 08:52:37;;;;;;;37.17;17.60;;;;;;;13.69;80.62;100949.78;4455189;32;34101;-73
2022/10/29 08:55:32;;;;;;;35.83;18.00;;;;;;;14.24;78.19;100947.59;4451660;32;33840;-72
2022/10/29 08:58:12;;;;;;;34.85;17.98;;;;;;;14.23;78.14;100951.38;4459438;32;33542;-75
2022/10/29 09:00:41;;;;;;;40.40;20.30;;;;;;;14.38;77.20;100945.37;4467814;32;33963;-75
2022/10/29 09:03:10;;;;;;;39.92;19.75;;;;;;;14.29;77.04;100932.13;4467217;32;34360;-74
2022/10/29 09:05:48;;;;;;;38.20;18.80;;;;;;;14.20;77.57;100933.59;4463547;32;34642;-73
2022/10/29 09:08:37;;;;;;;42.60;20.98;;;;;;;14.44;77.21;100937.03;4455446;32;33170;-75
2022/10/29 09:11:26;;;;;;;37.83;19.30;;;;;;;14.31;76.38;100935.44;4467366;32;34806;-75
2022/10/29 09:14:12;;;;;;;39.45;19.08;;;;;;;14.00;78.31;100936.75;4454003;32;34759;-74
2022/10/29 09:16:51;;;;;;;35.25;19.62;;;;;;;13.99;78.65;100946.00;4468536;32;34631;-73
2022/10/29 09:19:37;;;;;;;34.40;18.17;;;;;;;13.79;78.72;100948.31;4467167;32;34567;-72
2022/10/29 09:22:21;;;;;;;35.15;18.73;;;;;;;13.45;81.28;100946.22;4467006;32;34559;-72
2022/10/29 09:24:54;;;;;;;32.03;17.55;;;;;;;13.83;79.59;100936.69;4465800;32;33956;-80
2022/10/29 09:27:37;;;;;;;33.53;17.98;;;;;;;14.23;78.35;100940.47;4455064;32;33687;-74
2022/10/29 09:30:11;;;;;;;32.13;17.23;;;;;;;14.21;78.62;100943.44;4452989;32;34505;-75
2022/10/29 09:32:43;;;;;;;32.50;17.30;;;;;;;14.32;77.63;100941.75;4452992;32;34012;-78
2022/10/29 09:35:16;;;;;;;33.83;17.15;;;;;;;14.28;77.06;100938.66;4450723;32;34248;-75
2022/10/29 09:37:52;;;;;;;34.35;17.05;;;;;;;14.13;77.87;100927.47;4451914;32;33777;-75
2022/10/29 09:40:36;;;;;;;34.17;19.12;;;;;;;14.37;76.99;100944.56;4455459;32;33137;-73
2022/10/29 09:43:23;;;;;;;29.85;16.87;;;;;;;14.42;77.84;100947.38;4460720;32;34593;-77
2022/10/29 09:45:59;;;;;;;30.48;16.20;;;;;;;14.77;75.24;100949.09;4463681;32;34195;-75
2022/10/29 09:48:33;;;;;;;27.75;15.93;;;;;;;15.34;72.16;100951.66;4452817;32;33785;-75
2022/10/29 09:51:07;;;;;;;29.02;16.45;;;;;;;14.69;73.79;100941.34;4450907;32;34321;-77
2022/10/29 09:53:34;;;;;;;31.37;17.12;;;;;;;14.49;75.61;100930.84;4451484;32;33746;-77
2022/10/29 09:56:05;;;;;;;31.87;17.70;;;;;;;13.84;76.97;100916.50;4450698;32;33805;-76
2022/10/29 09:58:36;;;;;;;40.35;19.83;;;;;;;14.01;78.08;100904.84;4451493;32;33962;-74
2022/10/29 10:01:04;;;;;;;37.40;19.25;;;;;;;14.11;77.43;100911.31;4462113;32;34323;-76
2022/10/29 10:03:40;;;;;;;41.63;21.23;;;;;;;14.50;75.78;100919.69;4467776;32;34591;-73
2022/10/29 10:06:09;;;;;;;36.45;18.87;;;;;;;14.79;73.87;100918.81;4467127;32;34233;-72
2022/10/29 10:08:57;;;;;;;34.08;17.83;;;;;;;14.62;74.64;100916.91;4451302;32;33424;-71
2022/10/29 10:11:30;;;;;;;33.70;17.95;;;;;;;14.76;73.76;100925.59;4451318;32;33263;-71
2022/10/29 10:13:58;;;;;;;30.70;18.25;;;;;;;14.62;74.06;100927.00;4450687;32;33648;-75
2022/10/29 10:16:28;;;;;;;29.02;18.45;;;;;;;14.62;74.03;100918.81;4450167;32;35056;-75
2022/10/29 10:18:55;;;;;;;29.02;17.17;;;;;;;14.66;73.88;100914.50;4450435;32;34338;-76
2022/10/29 10:21:26;;;;;;;31.50;16.87;;;;;;;14.61;74.66;100917.16;4460234;32;34588;-74
2022/10/29 10:23:56;;;;;;;24.80;14.95;;;;;;;14.45;74.31;100916.00;4465644;32;33593;-77
2022/10/29 10:26:31;;;;;;;26.00;15.27;;;;;;;14.56;74.18;100910.53;4450051;32;33873;-77
2022/10/29 10:29:09;;;;;;;28.75;16.73;;;;;;;14.56;73.69;100910.53;4450268;32;35123;-78
2022/10/29 10:31:38;;;;;;;28.08;16.58;;;;;;;14.12;75.49;100903.94;4450409;32;33303;-77
2022/10/29 10:34:15;;;;;;;31.52;15.82;;;;;;;13.94;76.20;100900.34;4451508;32;34744;-77
2022/10/29 10:36:46;;;;;;;33.20;17.05;;;;;;;14.03;76.11;100898.06;4450414;32;33879;-77
2022/10/29 10:39:24;;;;;;;28.65;16.23;;;;;;;13.67;77.61;100904.69;4449284;32;35088;-77
2022/10/29 10:41:54;;;;;;;29.33;17.00;;;;;;;14.03;76.61;100906.25;4456322;32;33534;-80
2022/10/29 10:44:22;;;;;;;27.92;16.67;;;;;;;13.97;76.70;100899.03;4452892;32;34071;-77
2022/10/29 10:46:51;;;;;;;33.60;17.40;;;;;;;14.41;74.78;100899.31;4465980;32;33709;-77
2022/10/29 10:49:36;;;;;;;31.27;17.62;;;;;;;14.28;76.17;100894.16;4465369;32;33965;-76
2022/10/29 10:52:29;;;;;;;33.85;18.00;;;;;;;14.05;77.93;100886.91;4450855;32;34033;-75
2022/10/29 10:54:59;;;;;;;34.10;18.92;;;;;;;14.29;76.92;100888.44;4448247;32;34750;-75
2022/10/29 10:57:40;;;;;;;36.33;19.48;;;;;;;14.49;75.34;100889.88;4439050;32;34216;-75
2022/10/29 11:00:19;;;;;;;34.97;18.40;;;;;;;14.79;74.00;100880.56;4452278;32;33987;-76
2022/10/29 11:03:00;;;;;;;40.65;21.27;;;;;;;14.69;74.18;100879.34;4456569;32;33196;-74
2022/10/29 11:05:30;;;;;;;40.17;21.08;;;;;;;14.69;74.29;100884.78;4467654;32;34700;-74
2022/10/29 11:08:13;;;;;;;35.38;20.23;;;;;;;14.53;75.14;100877.37;4457468;32;34248;-75
2022/10/29 11:10:52;;;;;;;36.30;20.55;;;;;;;14.81;73.41;100881.16;4451857;32;33951;-74
2022/10/29 11:13:21;;;;;;;33.17;18.77;;;;;;;14.65;73.96;100878.16;4455768;32;33283;-77
2022/10/29 11:16:15;;;;;;;33.88;19.70;;;;;;;14.61;74.29;100873.47;4451637;32;33986;-76
2022/10/29 11:19:15;;;;;;;38.85;21.08;;;;;;;14.55;74.64;100875.25;4451387;32;34400;-77
2022/10/29 11:22:25;;;;;;;39.22;21.42;;;;;;;14.74;74.54;100865.75;4458953;32;33611;-75
2022/10/29 11:25:13;;;;;;;33.35;19.92;;;;;;;14.74;74.28;100862.19;4466635;32;33267;-77
2022/10/29 11:27:54;;;;;;;35.10;20.17;;;;;;;14.52;75.70;100865.62;4467440;32;34929;-76
2022/10/29 11:30:25;;;;;;;33.78;19.45;;;;;;;14.78;73.47;100868.81;4465073;32;34409;-72
2022/10/29 11:33:09;;;;;;;31.42;18.35;;;;;;;14.86;73.96;100865.66;4462860;32;34441;-73
2022/10/29 11:35:52;;;;;;;33.13;18.87;;;;;;;15.06;73.15;100847.91;4444886;32;34319;-72
2022/10/29 11:38:34;;;;;;;31.67;17.27;;;;;;;14.91;73.12;100852.06;4453564;32;34740;-71
2022/10/29 11:41:25;;;;;;;30.73;17.23;;;;;;;14.81;74.02;100853.81;4461055;32;34079;-73
2022/10/29 11:43:53;;;;;;;29.40;17.30;;;;;;;14.56;75.74;100842.25;4456083;32;33620;-73